Time;durP1;ratioP1;P1;durP2;ratioP2;P2;SDS_P1;SDS_P2;PMS_P1;PMS_P2;Temp;Humidity;BMP_temperature;BMP_pressure;BME280_temperature;BME280_humidity;BME280_pressure;Samples;Min_cycle;Max_cycle;Signal;HPM_P1;HPM_P2
2022/07/01 00:02:20;;;;;;;10.75;3.55;;;27.90;47.90;;;;;;4995201;28;20121;-76
2022/07/01 00:04:46;;;;;;;14.10;3.15;;;27.90;47.90;;;;;;4994974;28;20023;-75
2022/07/01 00:07:12;;;;;;;8.57;3.55;;;27.80;48.20;;;;;;4994886;28;20044;-74
2022/07/01 00:09:38;;;;;;;9.23;3.30;;;27.80;48.40;;;;;;4994677;28;20034;-75
2022/07/01 00:12:05;;;;;;;12.05;3.40;;;27.70;48.70;;;;;;4994616;28;20400;-73
2022/07/01 00:14:31;;;;;;;12.23;3.58;;;27.70;48.50;;;;;;4994613;28;20029;-73
2022/07/01 00:16:57;;;;;;;7.95;2.85;;;27.70;49.00;;;;;;4994683;28;20034;-73
2022/07/01 00:19:24;;;;;;;15.75;3.55;;;27.60;49.20;;;;;;4994561;28;20030;-77
2022/07/01 00:21:51;;;;;;;9.35;3.05;;;27.50;49.30;;;;;;4994860;28;20038;-76
2022/07/01 00:24:17;;;;;;;7.97;2.97;;;27.50;49.40;;;;;;4995225;28;20376;-75
2022/07/01 00:26:42;;;;;;;12.93;3.75;;;27.50;49.50;;;;;;4978122;28;20106;-75
2022/07/01 00:29:08;;;;;;;7.55;3.42;;;27.50;49.40;;;;;;4975305;28;20077;-73
2022/07/01 00:31:35;;;;;;;10.95;3.25;;;27.40;49.60;;;;;;4974734;28;20026;-75
2022/07/01 00:34:01;;;;;;;10.00;3.40;;;27.40;49.60;;;;;;4973557;28;20381;-73
2022/07/01 00:36:27;;;;;;;13.07;4.00;;;27.40;49.60;;;;;;4974762;28;20026;-76
2022/07/01 00:38:52;;;;;;;9.38;3.53;;;27.30;50.50;;;;;;4974707;28;20152;-75
2022/07/01 00:41:18;;;;;;;10.30;3.80;;;27.30;50.20;;;;;;4974693;28;20503;-76
2022/07/01 00:43:44;;;;;;;15.10;3.70;;;27.30;50.00;;;;;;4974670;28;20384;-73
2022/07/01 00:46:09;;;;;;;10.25;3.80;;;27.20;49.90;;;;;;4974584;28;20135;-75
2022/07/01 00:48:37;;;;;;;13.88;3.75;;;27.20;50.00;;;;;;4974557;28;20038;-72
2022/07/01 00:51:03;;;;;;;11.20;3.53;;;27.20;50.20;;;;;;4973100;28;20496;-74
2022/07/01 00:53:29;;;;;;;16.02;4.00;;;27.20;50.40;;;;;;4974489;28;20034;-74
2022/07/01 00:55:55;;;;;;;10.48;3.35;;;27.20;50.50;;;;;;4974227;28;20488;-75
2022/07/01 00:58:21;;;;;;;13.52;3.63;;;27.10;50.90;;;;;;4974399;28;20030;-73
2022/07/01 01:00:47;;;;;;;13.85;5.18;;;27.10;50.90;;;;;;4974396;28;20110;-74
2022/07/01 01:03:13;;;;;;;10.40;4.05;;;27.00;50.70;;;;;;4974402;28;20035;-74
2022/07/01 01:05:40;;;;;;;9.82;3.97;;;27.10;50.70;;;;;;4974399;28;20496;-76
2022/07/01 01:08:08;;;;;;;11.20;3.70;;;27.10;50.60;;;;;;4974158;28;20102;-74
2022/07/01 01:10:36;;;;;;;10.88;3.70;;;27.00;50.70;;;;;;4974511;28;20074;-75
2022/07/01 01:13:03;;;;;;;13.70;3.65;;;27.00;51.20;;;;;;4974366;28;20399;-74
2022/07/01 01:15:30;;;;;;;10.38;3.78;;;27.00;51.00;;;;;;4974265;28;20103;-74
2022/07/01 01:17:56;;;;;;;11.82;3.88;;;26.90;50.90;;;;;;4974207;28;20039;-76
2022/07/01 01:20:22;;;;;;;14.57;3.85;;;26.90;51.20;;;;;;4974036;28;20548;-74
2022/07/01 01:22:48;;;;;;;11.55;3.70;;;26.90;51.00;;;;;;4974414;28;20102;-73
2022/07/01 01:25:15;;;;;;;11.20;3.53;;;26.80;51.10;;;;;;4974776;28;20050;-75
2022/07/01 01:27:41;;;;;;;11.02;3.70;;;26.80;51.50;;;;;;4978218;28;20027;-74
2022/07/01 01:30:08;;;;;;;9.52;3.65;;;26.80;51.20;;;;;;4978300;28;20077;-73
2022/07/01 01:32:35;;;;;;;9.75;3.70;;;26.80;51.10;;;;;;4976709;28;20023;-75
2022/07/01 01:35:00;;;;;;;12.27;3.72;;;26.80;51.40;;;;;;4978181;28;20038;-74
2022/07/01 01:37:27;;;;;;;8.63;3.17;;;26.70;51.30;;;;;;4977904;28;20023;-74
2022/07/01 01:39:53;;;;;;;10.38;3.67;;;26.70;51.40;;;;;;4977801;28;20491;-75
2022/07/01 01:42:19;;;;;;;12.93;3.30;;;26.70;51.10;;;;;;4978021;28;20034;-75
2022/07/01 01:44:45;;;;;;;11.73;3.60;;;26.70;51.00;;;;;;4977987;28;20027;-75
2022/07/01 01:47:11;;;;;;;9.02;3.53;;;26.70;51.00;;;;;;4977982;28;20443;-74
2022/07/01 01:49:37;;;;;;;13.70;3.83;;;26.70;51.40;;;;;;4977697;28;20400;-74
2022/07/01 01:52:03;;;;;;;12.13;3.78;;;26.60;51.20;;;;;;4977427;28;20050;-74
2022/07/01 01:54:29;;;;;;;12.75;3.60;;;26.50;50.70;;;;;;4977477;28;20396;-74
2022/07/01 01:56:54;;;;;;;12.02;3.58;;;26.50;50.80;;;;;;4976261;28;20121;-75
2022/07/01 01:59:20;;;;;;;12.38;3.58;;;26.40;50.80;;;;;;4977457;28;20535;-74
2022/07/01 02:01:46;;;;;;;11.38;3.55;;;26.30;50.60;;;;;;4977856;28;20041;-74
2022/07/01 02:04:11;;;;;;;10.50;3.75;;;26.30;50.80;;;;;;4976044;28;20114;-74
2022/07/01 02:06:40;;;;;;;12.50;4.47;;;26.20;51.00;;;;;;4977498;28;20065;-73
2022/07/01 02:09:06;;;;;;;13.20;4.47;;;26.20;51.50;;;;;;4977452;28;20111;-73
2022/07/01 02:11:32;;;;;;;9.95;3.97;;;26.20;51.70;;;;;;4977210;28;20102;-73
2022/07/01 02:13:58;;;;;;;15.00;4.28;;;26.20;51.90;;;;;;4977422;28;20023;-73
2022/07/01 02:16:23;;;;;;;22.70;4.22;;;26.20;52.60;;;;;;4977408;28;20407;-73
2022/07/01 02:18:49;;;;;;;16.23;3.97;;;26.20;52.90;;;;;;4977034;28;20034;-73
2022/07/01 02:21:15;;;;;;;11.52;3.90;;;26.20;53.50;;;;;;4976902;28;20117;-73
2022/07/01 02:23:40;;;;;;;10.95;3.65;;;26.20;54.10;;;;;;4977172;28;20034;-73
2022/07/01 02:26:06;;;;;;;10.93;3.70;;;26.20;54.00;;;;;;4977144;28;20026;-72
2022/07/01 02:28:33;;;;;;;12.75;4.10;;;26.20;53.50;;;;;;4975951;28;20495;-74
2022/07/01 02:30:59;;;;;;;12.50;3.80;;;26.20;53.00;;;;;;4976940;28;20384;-73
2022/07/01 02:33:24;;;;;;;13.35;4.13;;;26.20;53.00;;;;;;4976777;28;20030;-74
2022/07/01 02:35:50;;;;;;;12.23;4.53;;;26.20;53.30;;;;;;4975676;28;20435;-74
2022/07/01 02:38:16;;;;;;;10.82;3.80;;;26.20;53.40;;;;;;4977002;28;20074;-73
2022/07/01 02:40:42;;;;;;;8.13;3.00;;;26.20;53.90;;;;;;4976683;28;20114;-73
2022/07/01 02:43:08;;;;;;;13.20;3.83;;;26.20;53.80;;;;;;4976817;28;20078;-74
2022/07/01 02:45:34;;;;;;;11.88;3.85;;;26.20;53.50;;;;;;4976606;28;20091;-74
2022/07/01 02:48:01;;;;;;;9.45;3.58;;;26.20;53.70;;;;;;4976531;28;20392;-74
2022/07/01 02:50:27;;;;;;;9.40;3.60;;;26.20;54.40;;;;;;4976561;28;20031;-74
2022/07/01 02:52:53;;;;;;;13.38;3.50;;;26.20;54.60;;;;;;4976567;28;20089;-73
2022/07/01 02:55:19;;;;;;;11.00;3.60;;;26.20;54.30;;;;;;4976818;28;20035;-74
2022/07/01 02:57:44;;;;;;;11.30;4.00;;;26.20;54.40;;;;;;4976750;28;20027;-73
2022/07/01 03:00:13;;;;;;;12.05;3.78;;;26.10;54.70;;;;;;4976371;28;20063;-74
2022/07/01 03:02:40;;;;;;;10.35;3.60;;;26.10;54.80;;;;;;4976402;28;20088;-74
2022/07/01 03:05:06;;;;;;;12.55;3.88;;;26.00;54.90;;;;;;4976372;28;20026;-74
2022/07/01 03:07:34;;;;;;;10.05;3.83;;;25.90;55.00;;;;;;4976138;28;20161;-73
2022/07/01 03:10:02;;;;;;;10.80;4.25;;;25.90;54.90;;;;;;4976273;28;20022;-74
2022/07/01 03:12:28;;;;;;;13.00;5.10;;;25.90;55.40;;;;;;4976362;28;20026;-74
2022/07/01 03:14:58;;;;;;;9.23;3.20;;;25.80;55.30;;;;;;4976016;28;20035;-75
2022/07/01 03:17:29;;;;;;;11.02;3.85;;;25.70;55.40;;;;;;4976290;28;20042;-74
2022/07/01 03:19:56;;;;;;;11.43;3.83;;;25.70;55.30;;;;;;4976223;28;20035;-73
2022/07/01 03:22:24;;;;;;;10.20;3.95;;;25.70;55.70;;;;;;4976117;28;20503;-74
2022/07/01 03:24:50;;;;;;;11.90;3.92;;;25.60;55.60;;;;;;4974956;28;20333;-74
2022/07/01 03:27:17;;;;;;;8.68;3.60;;;25.60;55.70;;;;;;4975931;28;20027;-74
2022/07/01 03:29:43;;;;;;;11.45;4.43;;;25.60;56.00;;;;;;4975870;28;20476;-72
2022/07/01 03:32:10;;;;;;;9.68;4.13;;;25.60;56.50;;;;;;4976142;28;20483;-74
2022/07/01 03:34:40;;;;;;;9.57;3.97;;;25.60;56.50;;;;;;4976132;28;20074;-74
2022/07/01 03:37:07;;;;;;;11.00;4.20;;;25.60;56.90;;;;;;4975983;28;20030;-74
2022/07/01 03:39:35;;;;;;;10.02;4.55;;;25.70;56.70;;;;;;4975581;28;20476;-74
2022/07/01 03:42:01;;;;;;;8.13;3.88;;;25.70;56.70;;;;;;4975766;28;20070;-74
2022/07/01 03:44:27;;;;;;;11.77;3.90;;;25.70;56.50;;;;;;4976093;28;20380;-75
2022/07/01 03:46:54;;;;;;;11.70;4.15;;;25.70;56.30;;;;;;4975871;28;20105;-74
2022/07/01 03:49:20;;;;;;;12.15;3.83;;;25.80;56.40;;;;;;4975338;28;20026;-75
2022/07/01 03:51:46;;;;;;;9.30;3.85;;;25.80;56.10;;;;;;4975366;28;20042;-74
2022/07/01 03:54:32;;;;;;;10.60;3.97;;;25.90;56.00;;;;;;4975478;28;20376;-73
2022/07/01 03:57:03;;;;;;;16.08;5.55;;;25.90;55.60;;;;;;4975376;28;20034;-74
2022/07/01 03:59:32;;;;;;;16.58;7.30;;;25.90;55.50;;;;;;4975159;28;20069;-75
2022/07/01 04:01:59;;;;;;;15.38;6.80;;;25.80;57.70;;;;;;4975391;28;20070;-74
2022/07/01 04:04:26;;;;;;;21.75;6.93;;;25.80;58.50;;;;;;4975378;28;20023;-76
2022/07/01 04:06:58;;;;;;;14.65;5.30;;;25.80;59.10;;;;;;4975443;28;20034;-73
2022/07/01 04:09:25;;;;;;;12.30;5.25;;;25.80;59.50;;;;;;4975282;28;20038;-74
2022/07/01 04:11:51;;;;;;;15.27;5.50;;;25.80;59.30;;;;;;4975318;28;20031;-74
2022/07/01 04:14:17;;;;;;;13.98;4.55;;;25.80;59.00;;;;;;4975293;28;20115;-79
2022/07/01 04:16:46;;;;;;;11.48;5.10;;;25.70;58.90;;;;;;4973874;28;20476;-77
2022/07/01 04:19:14;;;;;;;13.90;4.93;;;25.60;58.90;;;;;;4976046;28;20026;-80
2022/07/01 04:24:24;;;;;;;15.88;4.65;;;25.60;57.80;;;;;;4990941;28;20509;-78
2022/07/01 04:26:51;;;;;;;12.15;4.65;;;25.70;57.70;;;;;;4981628;28;20086;-79
2022/07/01 04:29:17;;;;;;;17.52;4.70;;;25.70;57.50;;;;;;4975737;28;20027;-79
2022/07/01 04:31:45;;;;;;;17.52;4.55;;;25.70;57.10;;;;;;4977331;28;20468;-79
2022/07/01 04:34:11;;;;;;;11.35;4.68;;;25.70;56.30;;;;;;4979445;28;20026;-77
2022/07/01 04:36:39;;;;;;;13.02;4.65;;;25.70;56.80;;;;;;4981436;28;20022;-78
2022/07/01 04:39:06;;;;;;;13.80;4.22;;;25.60;57.00;;;;;;4986905;28;20035;-78
2022/07/01 04:44:17;;;;;;;22.48;5.95;;;25.70;56.70;;;;;;4980439;28;20046;-79
2022/07/01 04:46:44;;;;;;;27.33;5.20;;;25.70;57.00;;;;;;4981225;28;20046;-76
2022/07/01 04:49:09;;;;;;;26.65;5.53;;;25.80;57.10;;;;;;4993145;28;20042;-78
2022/07/01 04:51:35;;;;;;;18.98;5.25;;;25.90;56.90;;;;;;4983417;28;20418;-77
2022/07/01 04:54:05;;;;;;;13.45;4.18;;;25.90;56.80;;;;;;4994151;28;20361;-79
2022/07/01 04:56:33;;;;;;;11.43;3.97;;;25.90;56.50;;;;;;4994342;28;20054;-77
2022/07/01 04:58:59;;;;;;;12.35;4.07;;;26.00;56.90;;;;;;4994321;28;20026;-77
2022/07/01 05:01:25;;;;;;;20.00;4.68;;;26.00;56.90;;;;;;4992847;28;20048;-78
2022/07/01 05:03:51;;;;;;;11.77;4.25;;;26.10;56.70;;;;;;4992220;28;20019;-78
2022/07/01 05:06:17;;;;;;;13.35;4.47;;;26.10;56.60;;;;;;4974476;28;20035;-78
2022/07/01 05:08:42;;;;;;;11.68;4.70;;;26.20;56.40;;;;;;4974726;28;20014;-78
2022/07/01 05:11:08;;;;;;;14.60;4.60;;;26.30;56.30;;;;;;4974465;28;20031;-77
2022/07/01 05:13:34;;;;;;;13.45;4.20;;;26.30;56.30;;;;;;4974724;28;20034;-75
2022/07/01 05:16:01;;;;;;;17.70;4.05;;;26.50;56.20;;;;;;4974074;28;20023;-76
2022/07/01 05:23:55;;;;;;;11.55;3.90;;;27.10;55.50;;;;;;4974684;28;20105;-77
2022/07/01 05:26:21;;;;;;;10.90;3.95;;;27.30;55.40;;;;;;4974276;28;20027;-76
2022/07/01 05:28:47;;;;;;;14.02;3.88;;;27.60;54.90;;;;;;4974159;28;20094;-76
2022/07/01 05:31:13;;;;;;;15.05;4.30;;;27.80;54.60;;;;;;4974074;28;20031;-77
2022/07/01 05:33:39;;;;;;;12.60;3.92;;;28.00;53.50;;;;;;4974131;28;20074;-74
2022/07/01 05:36:05;;;;;;;9.20;3.00;;;28.30;53.00;;;;;;4973995;28;20054;-77
2022/07/01 05:38:31;;;;;;;13.05;3.65;;;28.50;52.00;;;;;;4974069;28;20106;-75
2022/07/01 05:40:57;;;;;;;10.75;3.38;;;28.60;51.80;;;;;;4973563;28;20118;-74
2022/07/01 05:43:22;;;;;;;14.40;3.80;;;28.80;51.10;;;;;;4972679;28;20054;-74
2022/07/01 05:45:48;;;;;;;12.68;3.90;;;28.90;49.90;;;;;;4974124;28;20062;-74
2022/07/01 05:48:14;;;;;;;14.00;3.90;;;29.20;49.40;;;;;;4973919;28;20031;-76
2022/07/01 05:50:40;;;;;;;12.13;4.05;;;29.30;48.90;;;;;;4973894;28;20116;-77
2022/07/01 05:53:06;;;;;;;13.27;3.90;;;29.60;48.50;;;;;;4972594;28;20027;-78
2022/07/01 05:55:32;;;;;;;16.58;3.65;;;29.90;48.20;;;;;;4974474;28;20031;-76
2022/07/01 05:58:01;;;;;;;20.17;4.05;;;30.10;47.70;;;;;;4974528;28;20050;-76
2022/07/01 06:00:27;;;;;;;17.13;4.85;;;30.20;47.10;;;;;;4973550;28;20015;-77
2022/07/01 06:02:53;;;;;;;18.23;4.47;;;30.30;47.00;;;;;;4973784;28;20424;-77
2022/07/01 06:05:19;;;;;;;16.77;4.13;;;30.30;46.50;;;;;;4973614;28;20554;-78
2022/07/01 06:07:44;;;;;;;20.08;4.22;;;30.40;46.20;;;;;;4973904;28;20026;-77
2022/07/01 06:10:11;;;;;;;15.32;4.40;;;30.60;46.00;;;;;;4974181;28;20026;-77
2022/07/01 06:12:38;;;;;;;13.20;3.67;;;30.80;45.60;;;;;;4976316;28;20066;-77
2022/07/01 06:15:09;;;;;;;14.23;3.83;;;31.00;45.10;;;;;;4975908;28;20443;-76
2022/07/01 06:17:35;;;;;;;20.95;4.05;;;31.10;44.70;;;;;;4977379;28;20054;-74
2022/07/01 06:20:01;;;;;;;20.30;4.78;;;31.30;45.20;;;;;;4977358;28;20033;-78
2022/07/01 06:22:27;;;;;;;19.10;3.70;;;31.60;44.50;;;;;;4977065;28;20504;-76
2022/07/01 06:24:54;;;;;;;14.13;3.83;;;31.60;44.10;;;;;;4977363;28;20047;-77
2022/07/01 06:27:20;;;;;;;20.15;3.97;;;31.80;43.40;;;;;;4977295;28;20026;-76
2022/07/01 06:29:45;;;;;;;14.40;3.60;;;31.80;43.80;;;;;;4976848;28;20015;-76
2022/07/01 06:32:11;;;;;;;15.10;3.72;;;31.90;43.50;;;;;;4977081;28;20030;-76
2022/07/01 06:34:38;;;;;;;13.18;4.05;;;32.00;43.10;;;;;;4977211;28;20030;-75
2022/07/01 06:37:04;;;;;;;20.77;3.65;;;32.20;42.90;;;;;;4976793;28;20027;-79
2022/07/01 06:39:29;;;;;;;15.68;3.60;;;32.30;42.70;;;;;;4976937;28;20046;-78
2022/07/01 06:41:56;;;;;;;17.13;4.45;;;32.40;42.40;;;;;;4976416;28;20165;-75
2022/07/01 06:44:22;;;;;;;14.05;4.32;;;32.50;42.40;;;;;;4976824;28;20049;-77
2022/07/01 06:46:48;;;;;;;15.98;4.60;;;32.50;42.40;;;;;;4976811;28;20106;-77
2022/07/01 06:49:14;;;;;;;25.63;4.05;;;32.50;42.20;;;;;;4976614;28;20162;-78
2022/07/01 06:51:40;;;;;;;26.05;4.97;;;32.50;42.20;;;;;;4976144;28;20149;-77
2022/07/01 06:54:06;;;;;;;16.73;4.85;;;32.50;42.20;;;;;;4976652;28;20074;-76
2022/07/01 06:56:32;;;;;;;22.30;5.40;;;32.60;42.20;;;;;;4976304;28;20034;-79
2022/07/01 06:58:57;;;;;;;16.20;4.20;;;32.60;42.20;;;;;;4976476;28;20022;-75
2022/07/01 07:01:24;;;;;;;14.70;3.70;;;32.80;42.20;;;;;;4976196;28;20043;-74
2022/07/01 07:03:49;;;;;;;16.98;3.92;;;32.90;42.10;;;;;;4978357;28;20130;-73
2022/07/01 07:06:15;;;;;;;20.85;4.25;;;33.00;42.00;;;;;;4976919;28;20058;-75
2022/07/01 07:08:41;;;;;;;12.82;4.30;;;33.10;41.70;;;;;;4976265;28;20521;-76
2022/07/01 07:11:08;;;;;;;13.50;4.00;;;33.10;41.60;;;;;;4975701;28;20117;-75
2022/07/01 07:13:35;;;;;;;14.52;3.80;;;32.80;41.70;;;;;;4976011;28;20031;-74
2022/07/01 07:16:01;;;;;;;16.15;3.72;;;32.60;42.20;;;;;;4975702;28;20041;-75
2022/07/01 07:18:27;;;;;;;20.30;3.75;;;32.20;42.60;;;;;;4975842;28;20022;-75
2022/07/01 07:20:53;;;;;;;16.15;3.78;;;32.00;43.00;;;;;;4975598;28;20058;-76
2022/07/01 07:23:18;;;;;;;14.80;3.53;;;31.90;43.20;;;;;;4975042;28;20062;-75
2022/07/01 07:25:44;;;;;;;11.90;3.78;;;31.70;43.60;;;;;;4975945;28;20027;-74
2022/07/01 07:28:10;;;;;;;19.15;4.43;;;31.60;43.90;;;;;;4976025;28;20022;-75
2022/07/01 07:30:36;;;;;;;16.40;4.15;;;31.60;44.10;;;;;;4975462;28;20027;-75
2022/07/01 07:33:01;;;;;;;13.85;3.67;;;31.60;43.90;;;;;;4975611;28;20093;-75
2022/07/01 07:35:27;;;;;;;11.60;4.13;;;31.70;44.00;;;;;;4975541;28;20034;-76
2022/07/01 07:37:53;;;;;;;14.77;3.95;;;31.90;43.50;;;;;;4975644;28;20054;-77
2022/07/01 07:40:19;;;;;;;17.50;4.75;;;32.10;43.30;;;;;;4975473;28;20034;-77
2022/07/01 07:42:48;;;;;;;17.05;4.57;;;32.40;43.10;;;;;;4975454;28;20507;-75
2022/07/01 07:45:14;;;;;;;19.92;4.13;;;32.60;42.70;;;;;;4975476;28;20023;-72
2022/07/01 07:47:48;;;;;;;20.17;4.63;;;32.80;42.50;;;;;;4987057;28;20030;-72
2022/07/01 07:50:15;;;;;;;20.75;4.68;;;32.90;42.20;;;;;;4994607;28;20031;-69
2022/07/01 07:52:42;;;;;;;24.10;4.57;;;33.10;42.30;;;;;;4995080;28;20061;-72
2022/07/01 07:55:09;;;;;;;40.72;8.20;;;33.20;42.30;;;;;;4995019;28;20097;-77
2022/07/01 07:57:36;;;;;;;36.63;6.38;;;33.30;41.30;;;;;;4994707;28;20034;-73
2022/07/01 08:00:04;;;;;;;25.38;4.90;;;33.40;41.70;;;;;;4994505;28;20088;-72
2022/07/01 08:02:30;;;;;;;17.15;4.32;;;33.50;41.40;;;;;;4994585;28;20492;-75
2022/07/01 08:04:55;;;;;;;18.70;4.50;;;33.60;41.10;;;;;;4994423;28;20070;-73
2022/07/01 08:07:21;;;;;;;14.82;3.72;;;33.60;40.80;;;;;;4994888;28;20340;-70
2022/07/01 08:09:49;;;;;;;20.15;3.92;;;33.60;41.10;;;;;;4994438;28;20428;-75
2022/07/01 08:12:15;;;;;;;13.02;4.03;;;33.70;40.70;;;;;;4994499;28;20034;-73
2022/07/01 08:14:41;;;;;;;16.48;3.63;;;33.70;40.00;;;;;;4993109;28;20030;-75
2022/07/01 08:17:07;;;;;;;16.70;4.15;;;33.70;39.80;;;;;;4995020;28;20026;-74
2022/07/01 08:19:33;;;;;;;11.60;3.30;;;33.70;39.50;;;;;;4994247;28;20038;-78
2022/07/01 08:21:59;;;;;;;14.25;3.55;;;33.70;39.40;;;;;;4974398;28;20461;-82
2022/07/01 08:24:24;;;;;;;13.27;4.05;;;33.60;39.40;;;;;;4975209;28;20038;-77
2022/07/01 08:26:50;;;;;;;12.40;3.45;;;33.50;39.60;;;;;;4975143;28;20090;-76
2022/07/01 08:29:16;;;;;;;21.05;4.72;;;33.50;40.00;;;;;;4975444;28;20070;-77
2022/07/01 08:31:42;;;;;;;21.42;3.53;;;33.50;40.00;;;;;;4978650;28;20030;-78
2022/07/01 08:34:09;;;;;;;17.77;3.72;;;33.50;40.20;;;;;;4980864;28;20021;-74
2022/07/01 08:36:35;;;;;;;15.77;4.10;;;33.40;40.40;;;;;;4994151;28;20070;-73
2022/07/01 08:39:01;;;;;;;12.43;3.70;;;33.30;40.30;;;;;;4993887;28;20054;-73
2022/07/01 08:41:27;;;;;;;15.85;3.97;;;33.40;40.80;;;;;;4994166;28;20406;-77
2022/07/01 08:43:53;;;;;;;18.70;3.55;;;33.40;40.20;;;;;;4994277;28;20093;-76
2022/07/01 08:46:18;;;;;;;10.38;3.25;;;33.40;39.50;;;;;;4994192;28;20026;-75
2022/07/01 08:48:45;;;;;;;15.75;3.25;;;33.40;39.20;;;;;;4992387;28;20101;-73
2022/07/01 08:51:11;;;;;;;12.80;3.08;;;33.30;38.30;;;;;;4993682;28;20054;-72
2022/07/01 08:53:37;;;;;;;13.13;2.97;;;33.30;38.80;;;;;;4993146;28;20027;-73
2022/07/01 08:58:51;;;;;;;13.90;3.25;;;33.30;38.20;;;;;;4993413;28;20038;-74
2022/07/01 09:01:24;;;;;;;15.00;2.97;;;33.30;37.90;;;;;;4992848;28;20383;-73
2022/07/01 09:03:53;;;;;;;12.90;3.00;;;33.30;37.90;;;;;;4993401;28;20027;-71
2022/07/01 09:06:23;;;;;;;13.50;2.67;;;33.30;38.10;;;;;;4992688;28;20023;-73
2022/07/01 09:08:49;;;;;;;14.30;3.22;;;33.30;38.50;;;;;;4993966;28;20018;-73
2022/07/01 09:11:17;;;;;;;19.05;3.33;;;33.30;38.70;;;;;;4993568;28;20030;-76
2022/07/01 09:13:44;;;;;;;11.65;3.17;;;33.30;39.00;;;;;;4994152;28;20057;-75
2022/07/01 09:16:16;;;;;;;18.80;3.22;;;33.30;39.30;;;;;;4992070;28;20130;-70
2022/07/01 09:19:02;;;;;;;12.20;3.45;;;33.20;39.80;;;;;;4993794;28;20022;-72
2022/07/01 09:21:30;;;;;;;16.20;3.00;;;33.20;40.30;;;;;;4991601;28;20062;-76
2022/07/01 09:23:56;;;;;;;18.55;3.40;;;33.20;40.90;;;;;;4986073;28;20026;-78
2022/07/01 09:26:22;;;;;;;11.90;3.60;;;33.20;41.40;;;;;;4974147;28;20019;-72
2022/07/01 09:28:55;;;;;;;10.77;4.00;;;33.20;42.00;;;;;;4973944;28;20423;-71
2022/07/01 09:31:21;;;;;;;18.23;4.07;;;33.20;42.20;;;;;;4973669;28;20030;-70
2022/07/01 09:34:05;;;;;;;18.42;3.70;;;33.20;42.60;;;;;;4972553;28;20360;-71
2022/07/01 09:36:31;;;;;;;16.70;3.88;;;33.30;43.40;;;;;;4973564;28;20027;-71
2022/07/01 09:39:02;;;;;;;15.05;3.90;;;33.30;43.30;;;;;;4973869;28;20421;-69
2022/07/01 09:41:34;;;;;;;15.02;3.70;;;33.30;43.80;;;;;;4973546;28;20034;-72
2022/07/01 09:44:07;;;;;;;19.17;3.70;;;33.30;44.10;;;;;;4982624;28;20030;-74
2022/07/01 09:46:33;;;;;;;13.23;3.67;;;33.30;44.60;;;;;;4994180;28;20106;-74
2022/07/01 09:48:59;;;;;;;14.20;3.20;;;33.20;44.10;;;;;;4996633;28;20467;-71
2022/07/01 09:51:24;;;;;;;8.45;3.25;;;33.20;44.10;;;;;;4996442;28;20074;-74
2022/07/01 09:53:50;;;;;;;14.88;3.20;;;33.20;43.60;;;;;;4996472;28;20157;-72
2022/07/01 09:56:16;;;;;;;10.85;3.17;;;33.30;43.10;;;;;;4992628;28;20030;-71
2022/07/01 09:58:42;;;;;;;9.75;2.95;;;33.30;42.60;;;;;;4986209;28;20069;-72
2022/07/01 10:01:09;;;;;;;12.57;2.95;;;33.30;41.50;;;;;;4980217;28;20035;-72
2022/07/01 10:03:41;;;;;;;11.02;2.60;;;33.30;40.60;;;;;;4975563;28;20365;-72
2022/07/01 10:06:06;;;;;;;6.75;2.30;;;33.30;39.40;;;;;;4976785;28;20306;-73
2022/07/01 10:09:06;;;;;;;8.93;2.42;;;33.30;38.10;;;;;;4976829;28;20537;-74
2022/07/01 10:11:46;;;;;;;7.50;2.13;;;33.40;37.60;;;;;;4976966;28;20023;-73
2022/07/01 10:14:14;;;;;;;10.85;2.72;;;33.50;38.10;;;;;;4981369;28;20022;-71
2022/07/01 10:16:40;;;;;;;12.18;2.28;;;33.50;37.30;;;;;;4996506;28;20026;-70
2022/07/01 10:19:28;;;;;;;10.95;2.30;;;33.50;36.50;;;;;;4990418;28;20038;-71
2022/07/01 10:21:57;;;;;;;9.65;2.28;;;33.60;36.00;;;;;;4976469;28;20058;-70
2022/07/01 10:24:25;;;;;;;9.10;2.85;;;33.70;36.10;;;;;;4976758;28;20361;-70
2022/07/01 10:26:52;;;;;;;11.90;3.33;;;33.70;36.30;;;;;;4977021;28;20031;-72
2022/07/01 10:29:27;;;;;;;7.90;2.40;;;33.80;36.80;;;;;;4976427;28;20122;-75
2022/07/01 10:31:54;;;;;;;11.88;2.58;;;33.80;37.10;;;;;;4976662;28;20035;-72
2022/07/01 10:34:22;;;;;;;8.32;2.42;;;33.80;37.50;;;;;;4980505;28;20069;-80
2022/07/01 10:37:01;;;;;;;8.82;2.80;;;33.80;37.80;;;;;;4980113;28;20058;-73
2022/07/01 10:39:27;;;;;;;11.90;3.08;;;33.80;37.90;;;;;;4976896;28;20098;-80
2022/07/01 10:41:53;;;;;;;7.70;2.28;;;33.70;38.60;;;;;;4984560;28;20031;-80
2022/07/01 10:44:19;;;;;;;14.82;2.97;;;33.80;39.20;;;;;;4996262;28;20029;-74
2022/07/01 10:47:06;;;;;;;9.88;2.47;;;33.80;38.50;;;;;;4983338;28;20102;-69
2022/07/01 10:49:40;;;;;;;8.48;2.47;;;33.90;38.60;;;;;;4986722;28;20015;-71
2022/07/01 10:52:16;;;;;;;15.15;2.60;;;33.90;39.00;;;;;;4992586;28;20057;-70
2022/07/01 10:54:45;;;;;;;10.68;2.80;;;34.00;38.80;;;;;;4994647;28;20038;-74
2022/07/01 10:57:19;;;;;;;6.82;2.35;;;34.00;39.50;;;;;;4995709;28;20575;-71
2022/07/01 10:59:53;;;;;;;6.95;2.50;;;34.10;39.90;;;;;;4995407;28;20034;-70
2022/07/01 11:02:20;;;;;;;9.50;2.63;;;34.10;41.30;;;;;;4994633;28;20369;-69
2022/07/01 11:04:46;;;;;;;8.93;2.95;;;34.20;40.30;;;;;;4991293;28;20026;-72
2022/07/01 11:07:12;;;;;;;11.35;2.75;;;34.20;40.50;;;;;;4994933;28;20057;-70
2022/07/01 11:09:38;;;;;;;6.57;2.45;;;34.20;40.30;;;;;;4995613;28;20027;-74
2022/07/01 11:12:06;;;;;;;12.68;2.92;;;34.30;40.30;;;;;;4995447;28;20037;-75
2022/07/01 11:14:37;;;;;;;10.57;2.70;;;34.30;40.60;;;;;;4995193;28;20467;-69
2022/07/01 11:17:03;;;;;;;7.85;2.47;;;34.30;40.30;;;;;;4995416;28;20026;-70
2022/07/01 11:19:29;;;;;;;8.05;2.60;;;34.30;40.20;;;;;;4995141;28;20026;-69
2022/07/01 11:21:56;;;;;;;8.45;2.10;;;34.40;39.90;;;;;;4995368;28;20451;-71
2022/07/01 11:24:23;;;;;;;8.85;2.40;;;34.40;39.60;;;;;;4993651;28;20018;-68
2022/07/01 11:26:49;;;;;;;9.60;2.20;;;34.40;38.60;;;;;;4986288;28;20440;-69
2022/07/01 11:29:25;;;;;;;9.48;2.53;;;34.50;38.00;;;;;;4990620;28;20443;-69
2022/07/01 11:31:51;;;;;;;7.85;2.03;;;34.50;37.30;;;;;;4994790;28;20035;-79
2022/07/01 11:34:18;;;;;;;7.15;2.10;;;34.40;36.60;;;;;;4995014;28;20456;-70
2022/07/01 11:39:34;;;;;;;11.85;2.20;;;34.40;35.30;;;;;;4984327;28;20440;-69
2022/07/01 11:42:03;;;;;;;8.90;1.98;;;34.30;34.90;;;;;;4978053;28;20091;-71
2022/07/01 11:44:42;;;;;;;6.03;1.98;;;34.40;34.00;;;;;;4975383;28;20082;-69
2022/07/01 11:47:12;;;;;;;8.98;2.20;;;34.30;33.30;;;;;;4978219;28;20073;-71
2022/07/01 11:49:46;;;;;;;9.73;1.83;;;34.30;33.60;;;;;;4985062;28;20021;-71
2022/07/01 11:52:12;;;;;;;8.43;1.80;;;34.30;34.00;;;;;;4978137;28;20075;-70
2022/07/01 11:54:39;;;;;;;9.15;2.13;;;34.30;34.00;;;;;;4991291;28;20057;-69
2022/07/01 11:57:12;;;;;;;8.57;2.55;;;34.30;35.00;;;;;;4984141;28;20527;-71
2022/07/01 11:59:40;;;;;;;11.13;3.13;;;34.30;35.30;;;;;;4976598;28;20050;-70
2022/07/01 12:02:10;;;;;;;11.18;2.80;;;34.30;35.90;;;;;;4975446;28;20050;-69
2022/07/01 12:04:36;;;;;;;10.60;2.58;;;34.30;36.10;;;;;;4981919;28;20361;-71
2022/07/01 12:07:02;;;;;;;8.68;2.30;;;34.20;35.20;;;;;;4994371;28;20121;-68
2022/07/01 12:09:28;;;;;;;6.88;2.30;;;34.20;34.70;;;;;;4994644;28;20029;-70
2022/07/01 12:11:55;;;;;;;7.07;2.25;;;34.20;34.70;;;;;;4993883;28;20026;-68
2022/07/01 12:14:26;;;;;;;9.35;2.47;;;34.30;34.80;;;;;;4993693;28;20026;-70
2022/07/01 12:16:57;;;;;;;5.95;1.80;;;34.40;35.10;;;;;;4992364;28;20104;-70
2022/07/01 12:19:38;;;;;;;8.40;2.20;;;34.40;34.70;;;;;;4993734;28;20064;-70
2022/07/01 12:22:08;;;;;;;7.68;1.80;;;34.40;35.00;;;;;;4993511;28;20045;-69
2022/07/01 12:24:34;;;;;;;4.72;1.67;;;34.40;35.00;;;;;;4993726;28;20019;-68
2022/07/01 12:26:59;;;;;;;8.20;1.80;;;34.50;34.80;;;;;;4993905;28;20027;-69
2022/07/01 12:29:31;;;;;;;6.22;1.90;;;34.50;34.50;;;;;;4993407;28;20116;-68
2022/07/01 12:32:03;;;;;;;5.50;1.42;;;34.40;34.50;;;;;;4974384;28;20241;-71
2022/07/01 12:34:41;;;;;;;6.85;1.70;;;34.40;34.30;;;;;;4979136;28;20103;-68
2022/07/01 12:37:16;;;;;;;4.93;1.63;;;34.40;34.90;;;;;;4975982;28;20041;-76
2022/07/01 12:39:46;;;;;;;4.85;1.60;;;34.40;35.10;;;;;;4974109;28;20364;-73
2022/07/01 12:42:28;;;;;;;4.60;1.50;;;34.30;35.10;;;;;;4974745;28;20134;-73
2022/07/01 12:44:57;;;;;;;4.00;1.38;;;34.30;35.20;;;;;;4974271;28;20039;-76
2022/07/01 12:47:37;;;;;;;9.48;1.63;;;34.30;34.60;;;;;;4974051;28;20213;-74
2022/07/01 12:50:15;;;;;;;11.43;1.73;;;34.20;34.90;;;;;;4974244;28;20025;-74
2022/07/01 12:53:03;;;;;;;3.90;1.63;;;34.20;35.30;;;;;;4974145;28;20496;-70
2022/07/01 12:55:42;;;;;;;6.13;1.50;;;34.20;35.60;;;;;;4974325;28;20204;-72
2022/07/01 12:58:17;;;;;;;5.80;1.75;;;34.10;35.70;;;;;;4974147;28;20439;-71